createdAt,value
2022-07-26T00:00:10.794Z,21.94
2022-07-26T00:02:16.541Z,21.87
2022-07-26T00:04:19.814Z,21.62
2022-07-26T00:06:21.309Z,21.67
2022-07-26T00:08:22.825Z,21.70
2022-07-26T00:10:24.350Z,21.77
2022-07-26T00:12:27.235Z,21.71
2022-07-26T00:14:28.935Z,21.42
2022-07-26T00:16:30.550Z,21.61
2022-07-26T00:18:32.449Z,21.48
2022-07-26T00:20:34.028Z,21.47
2022-07-26T00:22:37.008Z,21.45
2022-07-26T00:24:38.553Z,21.59
2022-07-26T00:26:40.198Z,21.45
2022-07-26T00:28:43.096Z,21.38
2022-07-26T00:30:44.716Z,21.48
2022-07-26T00:32:46.205Z,21.56
2022-07-26T00:34:47.719Z,21.68
2022-07-26T00:36:49.305Z,21.53
2022-07-26T00:38:50.799Z,21.45
2022-07-26T00:40:52.381Z,21.56
2022-07-26T00:42:53.918Z,21.63
2022-07-26T00:44:56.810Z,21.60
2022-07-26T00:46:58.297Z,21.33
2022-07-26T00:49:00.037Z,21.34
2022-07-26T00:51:01.606Z,21.15
2022-07-26T00:53:03.175Z,21.24
2022-07-26T00:55:05.529Z,21.36
2022-07-26T00:57:07.030Z,21.40
2022-07-26T00:59:08.750Z,21.23
2022-07-26T01:01:12.042Z,21.18
2022-07-26T01:03:13.703Z,21.11
2022-07-26T01:05:15.253Z,21.18
2022-07-26T01:07:16.778Z,21.27
2022-07-26T01:09:18.302Z,21.24
2022-07-26T01:11:19.816Z,21.34
2022-07-26T01:13:21.421Z,21.14
2022-07-26T01:15:22.928Z,21.01
2022-07-26T01:17:25.830Z,21.03
2022-07-26T01:19:27.345Z,20.97
2022-07-26T01:21:30.382Z,20.95
2022-07-26T01:23:31.888Z,20.85
2022-07-26T01:25:43.428Z,21.06
2022-07-26T01:27:47.412Z,20.74
2022-07-26T01:29:48.920Z,20.77
2022-07-26T01:31:50.498Z,20.87
2022-07-26T01:33:52.063Z,20.81
2022-07-26T01:35:53.606Z,20.85
2022-07-26T01:37:56.601Z,20.69
2022-07-26T01:39:58.127Z,20.82
2022-07-26T01:41:59.763Z,20.71
2022-07-26T01:44:01.593Z,20.78
2022-07-26T01:46:03.362Z,20.83
2022-07-26T01:48:05.372Z,20.74
2022-07-26T01:50:08.013Z,20.62
2022-07-26T01:52:09.524Z,20.67
2022-07-26T01:54:12.564Z,20.97
2022-07-26T01:56:14.448Z,20.94
2022-07-26T01:58:15.979Z,20.82
2022-07-26T02:00:17.796Z,20.72
2022-07-26T02:02:19.376Z,20.87
2022-07-26T02:04:20.985Z,20.98
2022-07-26T02:06:22.526Z,20.94
2022-07-26T02:08:24.032Z,20.54
2022-07-26T02:10:27.168Z,20.78
2022-07-26T02:12:28.665Z,20.74
2022-07-26T02:14:30.207Z,20.50
2022-07-26T02:16:31.775Z,20.39
2022-07-26T02:18:33.360Z,20.64
2022-07-26T02:20:34.958Z,20.62
2022-07-26T02:22:36.457Z,20.43
2022-07-26T02:24:37.954Z,20.47
2022-07-26T02:26:40.823Z,20.33
2022-07-26T02:28:42.683Z,20.37
2022-07-26T02:30:44.545Z,20.59
2022-07-26T02:32:46.066Z,20.66
2022-07-26T02:34:47.650Z,20.59
2022-07-26T02:36:49.187Z,20.55
2022-07-26T02:38:50.697Z,20.57
2022-07-26T02:40:55.003Z,20.72
2022-07-26T02:42:57.936Z,20.81
2022-07-26T02:44:59.460Z,20.51
2022-07-26T02:47:01.002Z,20.38
2022-07-26T02:49:02.600Z,20.27
2022-07-26T02:51:04.347Z,20.48
2022-07-26T02:53:05.836Z,20.21
2022-07-26T02:55:07.814Z,20.23
2022-07-26T02:57:09.343Z,20.26
2022-07-26T02:59:12.280Z,20.25
2022-07-26T03:01:13.888Z,20.24
2022-07-26T03:03:15.634Z,20.21
2022-07-26T03:05:17.391Z,20.24
2022-07-26T03:07:18.972Z,20.12
2022-07-26T03:09:20.491Z,20.28
2022-07-26T03:11:22.003Z,20.26
2022-07-26T03:13:23.528Z,20.06
2022-07-26T03:15:26.482Z,20.05
2022-07-26T03:17:28.038Z,20.17
2022-07-26T03:19:29.569Z,20.05
2022-07-26T03:21:31.127Z,20.25
2022-07-26T03:23:32.653Z,20.10
2022-07-26T03:25:34.224Z,20.08
2022-07-26T03:27:39.200Z,20.08
2022-07-26T03:29:40.702Z,20.20
2022-07-26T03:31:43.591Z,20.27
2022-07-26T03:33:45.086Z,20.11
2022-07-26T03:35:46.606Z,20.01
2022-07-26T03:37:48.812Z,19.87
2022-07-26T03:39:50.348Z,19.73
2022-07-26T03:41:51.871Z,20.05
2022-07-26T03:43:53.383Z,19.80
2022-07-26T03:45:54.986Z,19.75
2022-07-26T03:47:57.899Z,19.81
2022-07-26T03:49:59.426Z,19.80
2022-07-26T03:52:00.943Z,19.92
2022-07-26T03:54:02.466Z,19.98
2022-07-26T03:56:04.181Z,20.06
2022-07-26T03:58:05.670Z,20.18
2022-07-26T04:00:07.840Z,19.91
2022-07-26T04:02:09.381Z,20.00
2022-07-26T04:04:14.537Z,20.13
2022-07-26T04:06:16.330Z,20.29
2022-07-26T04:08:17.803Z,20.27
2022-07-26T04:10:19.331Z,20.17
2022-07-26T04:12:20.852Z,20.11
2022-07-26T04:14:22.382Z,20.28
2022-07-26T04:16:23.941Z,20.57
2022-07-26T04:18:25.506Z,20.55
2022-07-26T04:20:28.400Z,20.37
2022-07-26T04:22:29.904Z,20.34
2022-07-26T04:24:31.513Z,20.57
2022-07-26T04:26:33.024Z,20.50
2022-07-26T04:28:34.577Z,20.48
2022-07-26T04:30:36.221Z,20.83
2022-07-26T04:32:37.769Z,20.61
2022-07-26T04:34:39.279Z,20.66
2022-07-26T04:36:42.161Z,20.57
2022-07-26T04:38:43.858Z,20.47
2022-07-26T04:40:45.402Z,20.45
2022-07-26T04:42:47.741Z,20.81
2022-07-26T04:44:49.251Z,20.82
2022-07-26T04:46:50.777Z,20.60
2022-07-26T04:48:52.387Z,20.42
2022-07-26T04:50:54.551Z,20.50
2022-07-26T04:52:57.437Z,20.51
2022-07-26T04:54:59.034Z,20.61
2022-07-26T04:57:00.565Z,20.41
2022-07-26T04:59:02.039Z,20.59
2022-07-26T05:01:10.154Z,20.65
2022-07-26T05:03:12.452Z,20.93
2022-07-26T05:05:14.060Z,21.15
2022-07-26T05:07:15.608Z,20.83
2022-07-26T05:09:18.536Z,20.88
2022-07-26T05:11:20.018Z,20.67
2022-07-26T05:13:27.105Z,20.66
2022-07-26T05:15:35.501Z,20.69
2022-07-26T05:17:37.525Z,20.70
2022-07-26T05:19:44.796Z,20.76
2022-07-26T05:21:49.027Z,20.80
2022-07-26T05:23:50.543Z,20.55
2022-07-26T05:25:53.440Z,20.73
2022-07-26T05:27:54.954Z,20.95
2022-07-26T05:29:56.454Z,21.22
2022-07-26T05:31:57.948Z,21.15
2022-07-26T05:33:59.459Z,21.15
2022-07-26T05:36:00.950Z,20.92
2022-07-26T05:38:02.494Z,21.33
2022-07-26T05:40:04.534Z,21.24
2022-07-26T05:42:07.545Z,21.07
2022-07-26T05:44:09.533Z,21.11
2022-07-26T05:46:12.515Z,21.26
2022-07-26T05:48:14.216Z,21.41
2022-07-26T05:50:15.736Z,21.10
2022-07-26T05:52:17.380Z,21.23
2022-07-26T05:54:18.907Z,20.92
2022-07-26T05:56:24.631Z,21.04
2022-07-26T05:58:27.513Z,21.16
2022-07-26T06:00:29.066Z,21.49
2022-07-26T06:02:30.623Z,21.35
2022-07-26T06:04:32.208Z,21.70
2022-07-26T06:06:33.706Z,21.30
2022-07-26T06:08:35.836Z,21.41
2022-07-26T06:10:37.374Z,21.53
2022-07-26T06:12:38.874Z,21.73
2022-07-26T06:14:41.742Z,21.66
2022-07-26T06:16:43.286Z,21.86
2022-07-26T06:18:44.852Z,21.81
2022-07-26T06:20:46.762Z,21.78
2022-07-26T06:22:48.272Z,21.84
2022-07-26T06:24:49.788Z,21.83
2022-07-26T06:26:56.294Z,21.48
2022-07-26T06:28:58.573Z,21.24
2022-07-26T06:31:01.600Z,21.52
2022-07-26T06:33:03.399Z,21.74
2022-07-26T06:35:05.250Z,21.62
2022-07-26T06:37:06.752Z,21.37
2022-07-26T06:39:08.247Z,21.06
2022-07-26T06:41:09.783Z,21.31
2022-07-26T06:43:11.296Z,21.17
2022-07-26T06:45:12.801Z,21.40
2022-07-26T06:47:15.671Z,21.61
2022-07-26T06:49:21.971Z,21.61
2022-07-26T06:51:24.148Z,21.87
2022-07-26T06:53:26.211Z,22.05
2022-07-26T06:55:27.740Z,22.21
2022-07-26T06:57:29.257Z,22.37
2022-07-26T06:59:30.826Z,21.96
2022-07-26T07:01:51.390Z,22.08
2022-07-26T07:03:55.215Z,22.39
2022-07-26T07:05:56.758Z,21.94
2022-07-26T07:07:58.724Z,22.03
2022-07-26T07:10:00.276Z,22.04
2022-07-26T07:12:08.798Z,22.10
2022-07-26T07:14:12.123Z,21.99
2022-07-26T07:16:13.790Z,22.12
2022-07-26T07:18:15.319Z,21.68
2022-07-26T07:20:18.262Z,21.92
2022-07-26T07:22:19.802Z,22.11
2022-07-26T07:24:21.283Z,22.20
2022-07-26T07:26:22.780Z,22.37
2022-07-26T07:28:25.985Z,22.12
2022-07-26T07:30:28.054Z,22.14
2022-07-26T07:32:29.805Z,21.85
2022-07-26T07:34:31.381Z,22.12
2022-07-26T07:36:34.244Z,22.39
2022-07-26T07:38:37.398Z,22.32
2022-07-26T07:40:44.218Z,22.66
2022-07-26T07:42:45.720Z,22.53
2022-07-26T07:44:47.235Z,23.00
2022-07-26T07:46:48.858Z,23.23
2022-07-26T07:48:50.409Z,23.58
2022-07-26T07:50:51.948Z,23.06
2022-07-26T07:52:54.789Z,23.15
2022-07-26T07:55:17.800Z,23.24
2022-07-26T07:57:17.828Z,22.95
2022-07-26T07:59:19.376Z,22.91
2022-07-26T08:01:24.563Z,23.02
2022-07-26T08:03:42.313Z,23.54
2022-07-26T08:05:43.924Z,23.49
2022-07-26T08:07:45.431Z,23.65
2022-07-26T08:09:48.797Z,23.03
2022-07-26T08:11:50.770Z,23.31
2022-07-26T08:13:52.758Z,23.33
2022-07-26T08:15:54.599Z,23.73
2022-07-26T08:17:57.403Z,23.50
2022-07-26T08:20:00.433Z,22.91
2022-07-26T08:22:02.313Z,23.07
2022-07-26T08:24:05.321Z,23.53
2022-07-26T08:26:08.286Z,23.43
2022-07-26T08:28:30.626Z,23.64
2022-07-26T08:30:31.499Z,24.02
2022-07-26T08:32:33.004Z,23.55
2022-07-26T08:34:34.531Z,23.40
2022-07-26T08:36:36.096Z,23.68
2022-07-26T08:38:37.642Z,23.95
2022-07-26T08:40:39.139Z,23.62
2022-07-26T08:42:52.404Z,24.03
2022-07-26T08:44:54.285Z,23.85
2022-07-26T08:46:55.876Z,23.68
2022-07-26T08:48:57.792Z,23.86
2022-07-26T08:50:59.443Z,23.48
2022-07-26T08:53:01.390Z,24.02
2022-07-26T08:55:02.900Z,23.69
2022-07-26T08:57:04.399Z,23.68
2022-07-26T08:59:15.680Z,23.41
2022-07-26T09:01:20.973Z,23.97
2022-07-26T09:03:24.363Z,24.52
2022-07-26T09:05:26.531Z,23.68
2022-07-26T09:07:28.115Z,23.34
2022-07-26T09:09:29.900Z,23.92
2022-07-26T09:11:31.757Z,24.04
2022-07-26T09:13:41.896Z,23.94
2022-07-26T09:15:44.810Z,23.96
2022-07-26T09:17:47.119Z,24.55
2022-07-26T09:20:05.750Z,25.12
2022-07-26T09:22:10.605Z,24.78
2022-07-26T09:24:12.575Z,24.56
2022-07-26T09:26:14.061Z,24.44
2022-07-26T09:28:25.125Z,24.18
2022-07-26T09:30:27.085Z,23.97
2022-07-26T09:32:29.969Z,23.91
2022-07-26T09:34:31.500Z,23.94
2022-07-26T09:36:33.007Z,24.27
2022-07-26T09:38:40.913Z,24.92
2022-07-26T09:40:42.686Z,24.75
2022-07-26T09:42:54.646Z,25.03
2022-07-26T09:44:56.476Z,25.16
2022-07-26T09:46:58.647Z,25.55
2022-07-26T09:49:15.853Z,25.39
2022-07-26T09:51:18.041Z,25.38
2022-07-26T09:53:26.977Z,25.56
2022-07-26T09:55:35.032Z,25.86
2022-07-26T09:57:40.958Z,25.94
2022-07-26T09:59:42.580Z,26.07
2022-07-26T10:01:44.253Z,26.24
2022-07-26T10:03:45.883Z,25.74
2022-07-26T10:05:48.796Z,26.18
2022-07-26T10:07:50.381Z,26.21
2022-07-26T10:09:54.318Z,26.45
2022-07-26T10:11:56.636Z,26.20
2022-07-26T10:13:58.126Z,26.75
2022-07-26T10:15:59.976Z,26.98
2022-07-26T10:18:03.031Z,25.91
2022-07-26T10:20:10.750Z,26.01
2022-07-26T10:22:26.852Z,26.11
2022-07-26T10:24:28.349Z,27.28
2022-07-26T10:26:39.095Z,27.32
2022-07-26T10:28:41.128Z,27.53
2022-07-26T10:30:42.616Z,27.56
2022-07-26T10:32:44.222Z,27.37
2022-07-26T10:34:45.974Z,27.51
2022-07-26T10:36:47.610Z,27.75
2022-07-26T10:38:59.086Z,28.06
2022-07-26T10:41:01.018Z,27.93
2022-07-26T10:43:37.734Z,27.95
2022-07-26T10:45:30.929Z,27.60
2022-07-26T10:47:35.366Z,26.98
2022-07-26T10:49:37.518Z,27.20
2022-07-26T10:51:39.922Z,26.86
2022-07-26T10:53:41.591Z,26.98
2022-07-26T10:55:48.312Z,27.73
2022-07-26T10:57:49.872Z,28.04
2022-07-26T10:59:56.255Z,28.47
2022-07-26T11:01:58.081Z,28.52
2022-07-26T11:03:59.647Z,27.99
2022-07-26T11:06:08.430Z,28.07
2022-07-26T11:08:10.296Z,27.84
2022-07-26T11:10:12.096Z,28.21
2022-07-26T11:12:18.265Z,28.94
2022-07-26T11:14:19.769Z,28.53
2022-07-26T11:16:21.414Z,28.29
2022-07-26T11:18:23.529Z,28.67
2022-07-26T11:20:29.405Z,28.48
2022-07-26T11:22:31.887Z,28.04
2022-07-26T11:24:33.425Z,27.27
2022-07-26T11:26:40.343Z,26.82
2022-07-26T11:28:56.399Z,26.58
2022-07-26T11:30:58.919Z,26.28
2022-07-26T11:33:01.586Z,26.23
2022-07-26T11:35:04.187Z,26.10
2022-07-26T11:37:05.688Z,26.10
2022-07-26T11:39:08.149Z,25.77
2022-07-26T11:41:09.666Z,25.46
2022-07-26T11:43:11.186Z,24.73
2022-07-26T11:45:14.024Z,24.50
2022-07-26T11:47:16.022Z,24.24
2022-07-26T11:49:18.453Z,24.36
2022-07-26T11:51:20.757Z,24.93
2022-07-26T11:53:22.407Z,25.07
2022-07-26T11:55:27.194Z,24.45
2022-07-26T11:57:29.465Z,24.31
2022-07-26T11:59:31.372Z,24.56
2022-07-26T12:01:34.265Z,24.59
2022-07-26T12:03:35.773Z,24.27
2022-07-26T12:05:37.499Z,24.66
2022-07-26T12:07:39.021Z,24.99
2022-07-26T12:09:41.060Z,25.57
2022-07-26T12:11:42.593Z,25.70
2022-07-26T12:13:55.210Z,25.99
2022-07-26T12:15:57.655Z,25.82
2022-07-26T12:18:00.596Z,25.86
2022-07-26T12:20:11.400Z,25.86
2022-07-26T12:22:13.621Z,26.35
2022-07-26T12:24:33.615Z,25.95
2022-07-26T12:26:35.290Z,25.96
2022-07-26T12:28:39.877Z,26.37
2022-07-26T12:30:41.694Z,26.93
2022-07-26T12:32:43.559Z,27.27
2022-07-26T12:34:55.935Z,28.07
2022-07-26T12:37:05.918Z,28.56
2022-07-26T12:39:07.411Z,28.36
2022-07-26T12:41:08.937Z,28.14
2022-07-26T12:43:15.399Z,27.63
2022-07-26T12:45:18.052Z,28.37
2022-07-26T12:47:19.885Z,28.33
2022-07-26T12:49:21.792Z,27.99
2022-07-26T12:51:24.829Z,28.30
2022-07-26T12:53:27.361Z,28.86
2022-07-26T12:55:29.141Z,28.18
2022-07-26T12:57:30.708Z,27.90
2022-07-26T12:59:32.327Z,28.05
2022-07-26T13:01:33.928Z,27.99
2022-07-26T13:03:35.542Z,28.26
2022-07-26T13:05:37.036Z,28.31
2022-07-26T13:07:40.017Z,27.95
2022-07-26T13:09:41.552Z,28.34
2022-07-26T13:11:43.051Z,28.32
2022-07-26T13:13:44.619Z,28.84
2022-07-26T13:15:46.112Z,28.15
2022-07-26T13:17:47.748Z,28.79
2022-07-26T13:19:49.287Z,29.26
2022-07-26T13:21:53.130Z,29.43
2022-07-26T13:23:56.233Z,29.18
2022-07-26T13:25:57.748Z,29.04
2022-07-26T13:27:59.262Z,29.62
2022-07-26T13:30:00.923Z,30.27
2022-07-26T13:32:02.540Z,30.53
2022-07-26T13:34:04.180Z,31.28
2022-07-26T13:36:05.754Z,31.02
2022-07-26T13:38:07.279Z,31.62
2022-07-26T13:40:10.863Z,30.33
2022-07-26T13:42:12.387Z,30.66
2022-07-26T13:44:14.280Z,30.22
2022-07-26T13:46:16.803Z,30.04
2022-07-26T13:48:18.395Z,29.53
2022-07-26T13:50:19.899Z,29.18
2022-07-26T13:52:21.420Z,28.79
2022-07-26T13:54:23.763Z,27.98
2022-07-26T13:56:26.642Z,27.24
2022-07-26T13:58:28.241Z,26.80
2022-07-26T14:00:29.876Z,26.24
2022-07-26T14:02:31.514Z,25.72
2022-07-26T14:04:33.055Z,25.36
2022-07-26T14:06:34.699Z,25.55
2022-07-26T14:08:36.270Z,25.67
2022-07-26T14:10:40.075Z,25.44
2022-07-26T14:12:42.987Z,25.26
2022-07-26T14:14:44.497Z,25.26
2022-07-26T14:16:47.940Z,25.62
2022-07-26T14:18:49.995Z,25.40
2022-07-26T14:20:51.533Z,25.41
2022-07-26T14:22:53.076Z,25.66
2022-07-26T14:24:54.578Z,25.96
2022-07-26T14:26:59.265Z,26.37
2022-07-26T14:29:02.789Z,26.61
2022-07-26T14:31:04.322Z,26.27
2022-07-26T14:33:05.826Z,26.46
2022-07-26T14:35:07.833Z,26.95
2022-07-26T14:37:41.019Z,27.42
2022-07-26T14:39:30.859Z,28.03
2022-07-26T14:41:32.476Z,28.67
2022-07-26T14:43:34.020Z,28.34
2022-07-26T14:45:36.956Z,27.92
2022-07-26T14:47:38.584Z,28.23
2022-07-26T14:49:40.151Z,28.77
2022-07-26T14:51:41.707Z,29.56
2022-07-26T14:53:43.208Z,30.23
2022-07-26T14:55:44.710Z,30.06
2022-07-26T14:57:46.308Z,30.32
2022-07-26T14:59:47.796Z,28.95
2022-07-26T15:01:50.990Z,29.35
2022-07-26T15:03:52.510Z,29.52
2022-07-26T15:05:54.010Z,29.23
2022-07-26T15:07:55.848Z,30.05
2022-07-26T15:09:57.391Z,30.39
2022-07-26T15:11:58.889Z,31.42
2022-07-26T15:14:05.671Z,32.08
2022-07-26T15:16:08.205Z,30.97
2022-07-26T15:18:15.126Z,29.55
2022-07-26T15:20:20.891Z,29.15
2022-07-26T15:22:27.750Z,28.68
2022-07-26T15:24:29.299Z,28.24
2022-07-26T15:26:30.818Z,28.93
2022-07-26T15:28:32.347Z,28.86
2022-07-26T15:30:33.887Z,28.59
2022-07-26T15:32:35.483Z,28.33
2022-07-26T15:34:38.361Z,27.53
2022-07-26T15:36:39.885Z,27.25
2022-07-26T15:38:41.436Z,27.68
2022-07-26T15:40:42.978Z,27.57
2022-07-26T15:42:44.538Z,27.81
2022-07-26T15:44:47.303Z,28.25
2022-07-26T15:46:48.829Z,28.42
2022-07-26T15:48:50.378Z,28.23
2022-07-26T15:50:53.342Z,27.68
2022-07-26T15:52:54.873Z,27.31
2022-07-26T15:54:56.370Z,27.74
2022-07-26T15:56:57.876Z,27.59
2022-07-26T15:58:59.399Z,26.96
2022-07-26T16:01:01.008Z,27.05
2022-07-26T16:03:02.615Z,27.28
2022-07-26T16:05:04.621Z,27.00
2022-07-26T16:07:07.503Z,26.87
2022-07-26T16:09:18.236Z,26.30
2022-07-26T16:11:20.962Z,26.37
2022-07-26T16:13:22.470Z,26.33
2022-07-26T16:15:24.046Z,26.22
2022-07-26T16:17:25.626Z,25.95
2022-07-26T16:19:27.893Z,25.54
2022-07-26T16:21:29.421Z,25.58
2022-07-26T16:23:32.276Z,25.92
2022-07-26T16:25:33.815Z,26.15
2022-07-26T16:27:35.318Z,26.77
2022-07-26T16:29:36.856Z,26.72
2022-07-26T16:31:38.475Z,27.08
2022-07-26T16:33:46.045Z,26.99
2022-07-26T16:35:48.170Z,26.85
2022-07-26T16:37:49.681Z,27.32
2022-07-26T16:39:52.602Z,27.39
2022-07-26T16:41:54.161Z,27.03
2022-07-26T16:43:55.655Z,26.85
2022-07-26T16:45:57.179Z,26.88
2022-07-26T16:48:00.098Z,27.26
2022-07-26T16:50:01.826Z,27.66
2022-07-26T16:52:03.599Z,26.83
2022-07-26T16:54:05.233Z,26.43
2022-07-26T16:56:08.292Z,26.28
2022-07-26T16:58:10.668Z,26.59
2022-07-26T17:00:12.548Z,26.78
2022-07-26T17:02:14.134Z,26.95
2022-07-26T17:04:15.725Z,27.14
2022-07-26T17:06:17.259Z,27.81
2022-07-26T17:08:18.791Z,27.69
2022-07-26T17:10:20.443Z,27.97
2022-07-26T17:12:23.485Z,27.35
2022-07-26T17:14:25.008Z,27.13
2022-07-26T17:16:26.635Z,27.06
2022-07-26T17:18:28.270Z,27.18
2022-07-26T17:20:29.811Z,27.81
2022-07-26T17:22:31.345Z,27.93
2022-07-26T17:24:32.874Z,28.58
2022-07-26T17:26:36.484Z,28.39
2022-07-26T17:28:40.529Z,28.64
2022-07-26T17:30:42.034Z,29.82
2022-07-26T17:32:43.598Z,33.78
2022-07-26T17:34:45.372Z,35.19
2022-07-26T17:36:46.930Z,32.76
2022-07-26T17:38:48.731Z,30.23
2022-07-26T17:40:50.783Z,29.01
2022-07-26T17:42:52.282Z,32.72
2022-07-26T17:44:55.160Z,35.23
2022-07-26T17:46:56.718Z,34.66
2022-07-26T17:48:58.410Z,35.69
2022-07-26T17:50:59.988Z,36.35
2022-07-26T17:53:01.492Z,35.34
2022-07-26T17:55:03.183Z,30.90
2022-07-26T17:57:04.721Z,29.40
2022-07-26T17:59:06.224Z,28.48
2022-07-26T18:01:09.313Z,29.62
2022-07-26T18:03:10.870Z,30.79
2022-07-26T18:05:12.489Z,29.89
2022-07-26T18:07:14.072Z,30.88
2022-07-26T18:09:15.539Z,29.42
2022-07-26T18:11:17.088Z,27.34
2022-07-26T18:13:18.607Z,26.75
2022-07-26T18:15:20.763Z,25.95
2022-07-26T18:17:23.669Z,26.06
2022-07-26T18:19:25.201Z,25.95
2022-07-26T18:21:26.864Z,25.25
2022-07-26T18:23:28.396Z,25.38
2022-07-26T18:25:29.936Z,25.41
2022-07-26T18:27:31.656Z,25.32
2022-07-26T18:29:33.164Z,25.18
2022-07-26T18:31:34.763Z,25.12
2022-07-26T18:33:37.731Z,24.48
2022-07-26T18:35:39.252Z,24.69
2022-07-26T18:37:40.784Z,24.50
2022-07-26T18:39:42.441Z,24.42
2022-07-26T18:41:43.974Z,25.18
2022-07-26T18:43:45.839Z,27.57
2022-07-26T18:45:47.345Z,27.61
2022-07-26T18:47:48.834Z,26.80
2022-07-26T18:49:51.765Z,25.84
2022-07-26T18:51:53.303Z,25.41
2022-07-26T18:53:55.451Z,24.89
2022-07-26T18:55:56.978Z,24.89
2022-07-26T18:58:01.950Z,24.48
2022-07-26T19:00:06.853Z,24.66
2022-07-26T19:02:08.387Z,24.97
2022-07-26T19:04:10.203Z,25.05
2022-07-26T19:06:13.410Z,25.05
2022-07-26T19:08:14.944Z,24.94
2022-07-26T19:10:16.568Z,24.98
2022-07-26T19:12:18.112Z,24.87
2022-07-26T19:14:19.645Z,24.83
2022-07-26T19:16:21.231Z,24.88
2022-07-26T19:18:22.826Z,25.06
2022-07-26T19:20:24.325Z,25.37
2022-07-26T19:22:27.319Z,25.20
2022-07-26T19:24:28.953Z,24.70
2022-07-26T19:26:30.482Z,24.69
2022-07-26T19:28:32.045Z,24.46
2022-07-26T19:30:33.800Z,24.43
2022-07-26T19:32:35.330Z,23.82
2022-07-26T19:34:36.898Z,23.83
2022-07-26T19:36:38.423Z,23.54
2022-07-26T19:38:41.304Z,23.42
2022-07-26T19:40:43.458Z,23.36
2022-07-26T19:42:44.957Z,23.48
2022-07-26T19:44:46.494Z,23.69
2022-07-26T19:46:48.034Z,23.67
2022-07-26T19:48:49.570Z,23.58
2022-07-26T19:50:51.146Z,23.62
2022-07-26T19:52:52.725Z,23.45
2022-07-26T19:54:55.584Z,23.22
2022-07-26T19:56:57.109Z,23.22
2022-07-26T19:58:58.957Z,23.32
2022-07-26T20:01:00.791Z,23.43
2022-07-26T20:03:02.454Z,23.27
2022-07-26T20:05:04.373Z,23.26
2022-07-26T20:07:05.949Z,23.14
2022-07-26T20:09:07.528Z,23.19
2022-07-26T20:11:10.524Z,23.00
2022-07-26T20:13:12.011Z,23.01
2022-07-26T20:15:13.552Z,22.92
2022-07-26T20:17:15.391Z,22.42
2022-07-26T20:19:17.040Z,22.11
2022-07-26T20:21:18.718Z,22.25
2022-07-26T20:23:20.285Z,22.05
2022-07-26T20:25:22.199Z,22.30
2022-07-26T20:27:25.043Z,22.12
2022-07-26T20:29:26.575Z,22.00
2022-07-26T20:31:28.136Z,21.71
2022-07-26T20:33:29.682Z,21.79
2022-07-26T20:35:31.182Z,21.89
2022-07-26T20:37:32.678Z,21.86
2022-07-26T20:39:34.198Z,21.99
2022-07-26T20:41:35.710Z,21.58
2022-07-26T20:43:38.766Z,21.57
2022-07-26T20:45:41.414Z,21.95
2022-07-26T20:47:43.149Z,21.67
2022-07-26T20:49:44.812Z,21.28
2022-07-26T20:51:46.301Z,21.19
2022-07-26T20:53:47.901Z,21.05
2022-07-26T20:55:49.408Z,21.07
2022-07-26T20:57:50.911Z,21.00
2022-07-26T20:59:53.813Z,21.10
2022-07-26T21:01:55.342Z,21.03
2022-07-26T21:03:56.997Z,21.19
2022-07-26T21:05:58.496Z,20.86
2022-07-26T21:08:00.243Z,20.69
2022-07-26T21:10:01.821Z,20.77
2022-07-26T21:12:03.494Z,20.89
2022-07-26T21:14:05.001Z,21.15
2022-07-26T21:16:09.654Z,21.13
2022-07-26T21:18:12.307Z,21.34
2022-07-26T21:20:13.968Z,21.03
2022-07-26T21:22:15.509Z,20.95
2022-07-26T21:24:17.009Z,21.24
2022-07-26T21:26:18.521Z,21.21
2022-07-26T21:28:20.214Z,21.34
2022-07-26T21:30:24.972Z,21.47
2022-07-26T21:32:31.502Z,21.48
2022-07-26T21:34:33.722Z,21.47
2022-07-26T21:36:35.354Z,21.45
2022-07-26T21:38:36.890Z,21.40
2022-07-26T21:40:38.474Z,21.24
2022-07-26T21:42:40.026Z,21.42
2022-07-26T21:44:41.639Z,21.48
2022-07-26T21:46:43.260Z,21.56
2022-07-26T21:48:46.216Z,21.41
2022-07-26T21:50:47.809Z,21.31
2022-07-26T21:52:49.489Z,21.24
2022-07-26T21:54:51.496Z,21.29
2022-07-26T21:56:53.139Z,21.27
2022-07-26T21:58:54.690Z,21.21
2022-07-26T22:00:56.230Z,20.81
2022-07-26T22:02:57.853Z,20.80
2022-07-26T22:05:00.947Z,20.60
2022-07-26T22:07:02.548Z,20.82
2022-07-26T22:09:08.388Z,20.83
2022-07-26T22:11:10.245Z,20.75
2022-07-26T22:13:11.959Z,20.80
2022-07-26T22:15:13.504Z,20.92
2022-07-26T22:17:15.056Z,20.83
2022-07-26T22:19:16.714Z,20.64
2022-07-26T22:21:19.626Z,20.62
2022-07-26T22:23:21.573Z,20.60
2022-07-26T22:25:23.077Z,20.65
2022-07-26T22:27:24.698Z,20.48
2022-07-26T22:29:26.363Z,20.49
2022-07-26T22:31:41.516Z,20.48
2022-07-26T22:33:43.180Z,20.43
2022-07-26T22:35:44.722Z,20.37
2022-07-26T22:37:47.624Z,20.21
2022-07-26T22:39:49.145Z,20.30
2022-07-26T22:42:13.812Z,20.55
2022-07-26T22:44:12.246Z,20.40
2022-07-26T22:46:13.896Z,20.10
2022-07-26T22:48:15.564Z,20.23
2022-07-26T22:50:17.112Z,20.11
2022-07-26T22:52:19.158Z,19.94
2022-07-26T22:54:22.051Z,19.98
2022-07-26T22:56:23.616Z,19.92
2022-07-26T22:58:25.126Z,20.07
2022-07-26T23:00:27.098Z,19.91
2022-07-26T23:02:28.598Z,19.89
2022-07-26T23:04:30.133Z,19.92
2022-07-26T23:06:32.583Z,19.93
2022-07-26T23:08:46.925Z,19.85
2022-07-26T23:10:50.586Z,19.78
2022-07-26T23:12:52.109Z,19.88
2022-07-26T23:14:53.645Z,19.82
2022-07-26T23:16:55.257Z,19.55
2022-07-26T23:18:56.835Z,19.60
2022-07-26T23:20:58.408Z,19.62
2022-07-26T23:23:00.024Z,19.72
2022-07-26T23:25:01.562Z,20.06
2022-07-26T23:27:04.651Z,20.11
2022-07-26T23:29:06.235Z,20.08
2022-07-26T23:31:08.431Z,19.83
2022-07-26T23:33:10.040Z,19.82
2022-07-26T23:35:11.741Z,19.77
2022-07-26T23:37:13.650Z,19.92
2022-07-26T23:39:15.217Z,19.88
2022-07-26T23:41:16.906Z,19.93
2022-07-26T23:43:19.772Z,20.05
2022-07-26T23:45:21.544Z,20.09
2022-07-26T23:47:23.647Z,20.19
2022-07-26T23:49:25.324Z,19.60
2022-07-26T23:51:26.914Z,19.51
2022-07-26T23:53:28.402Z,19.51
2022-07-26T23:55:34.141Z,19.58
2022-07-26T23:57:37.382Z,19.77
2022-07-26T23:59:40.264Z,19.68
